createdAt,value
2018-06-19T00:03:40.372Z,62.30
2018-06-19T00:07:44.072Z,62.30
2018-06-19T00:11:47.803Z,61.90
2018-06-19T00:15:51.485Z,61.30
2018-06-19T00:19:55.359Z,62.00
2018-06-19T00:23:59.075Z,61.40
2018-06-19T00:28:02.827Z,62.00
2018-06-19T00:32:06.550Z,61.30
2018-06-19T00:36:10.230Z,61.50
2018-06-19T00:40:13.938Z,61.30
2018-06-19T00:44:17.631Z,61.50
2018-06-19T00:48:21.311Z,62.00
2018-06-19T00:52:25.040Z,62.50
2018-06-19T00:56:39.947Z,61.70
2018-06-19T01:00:43.724Z,61.70
2018-06-19T01:04:47.542Z,61.90
2018-06-19T01:08:51.196Z,61.90
2018-06-19T01:12:54.893Z,61.70
2018-06-19T01:16:58.576Z,61.90
2018-06-19T01:21:02.268Z,62.40
2018-06-19T01:25:05.986Z,61.70
2018-06-19T01:29:09.656Z,62.00
2018-06-19T01:33:13.328Z,61.70
2018-06-19T01:37:16.977Z,61.90
2018-06-19T01:41:21.096Z,61.70
2018-06-19T01:45:24.776Z,61.70
2018-06-19T01:49:28.420Z,61.90
2018-06-19T01:53:32.084Z,61.70
2018-06-19T01:57:35.717Z,61.80
2018-06-19T02:01:39.367Z,61.90
2018-06-19T02:05:43.024Z,61.70
2018-06-19T02:09:46.700Z,61.70
2018-06-19T02:13:50.387Z,61.90
2018-06-19T02:17:54.008Z,61.90
2018-06-19T02:21:57.675Z,62.20
2018-06-19T02:26:01.376Z,62.00
2018-06-19T02:30:05.385Z,62.50
2018-06-19T02:34:09.133Z,62.40
2018-06-19T02:38:12.815Z,63.50
2018-06-19T02:42:16.488Z,62.50
2018-06-19T02:46:20.157Z,62.90
2018-06-19T02:50:23.952Z,62.50
2018-06-19T02:54:27.632Z,62.60
2018-06-19T02:58:31.265Z,62.60
2018-06-19T03:02:34.930Z,62.50
2018-06-19T03:06:38.567Z,63.00
2018-06-19T03:10:42.260Z,63.00
2018-06-19T03:14:45.942Z,62.90
2018-06-19T03:18:49.576Z,62.70
2018-06-19T03:22:53.230Z,62.70
2018-06-19T03:26:56.895Z,62.90
2018-06-19T03:31:00.552Z,63.10
2018-06-19T03:35:04.205Z,63.20
2018-06-19T03:39:09.767Z,64.00
2018-06-19T03:43:13.429Z,63.00
2018-06-19T03:47:17.117Z,63.40
2018-06-19T03:51:20.788Z,63.90
2018-06-19T03:55:24.428Z,63.80
2018-06-19T03:59:28.041Z,64.20
2018-06-19T04:03:31.676Z,63.70
2018-06-19T04:07:35.352Z,63.30
2018-06-19T04:11:39.137Z,63.50
2018-06-19T04:15:42.797Z,63.80
2018-06-19T04:19:46.396Z,65.10
2018-06-19T04:23:50.047Z,63.70
2018-06-19T04:27:53.697Z,64.20
2018-06-19T04:31:57.362Z,64.60
2018-06-19T04:36:01.044Z,65.30
2018-06-19T04:40:04.725Z,65.10
2018-06-19T04:44:08.587Z,64.60
2018-06-19T04:48:12.268Z,65.60
2018-06-19T04:52:15.932Z,64.60
2018-06-19T04:56:19.595Z,65.00
2018-06-19T05:00:23.202Z,64.00
2018-06-19T05:04:27.039Z,64.70
2018-06-19T05:08:30.677Z,64.00
2018-06-19T05:12:34.380Z,65.60
2018-06-19T05:16:38.124Z,65.40
2018-06-19T05:20:41.747Z,64.80
2018-06-19T05:24:45.393Z,65.70
2018-06-19T05:28:49.131Z,65.90
2018-06-19T05:32:52.795Z,66.00
2018-06-19T05:36:56.495Z,64.90
2018-06-19T05:41:00.219Z,65.10
2018-06-19T05:45:04.070Z,64.70
2018-06-19T05:49:07.743Z,65.00
2018-06-19T05:53:11.416Z,65.20
2018-06-19T05:57:15.109Z,65.60
2018-06-19T06:01:18.750Z,65.50
2018-06-19T06:05:22.432Z,64.80
2018-06-19T06:09:26.091Z,65.00
2018-06-19T06:13:29.822Z,65.70
2018-06-19T06:17:33.545Z,65.60
2018-06-19T06:21:37.284Z,65.40
2018-06-19T06:25:40.954Z,65.90
2018-06-19T06:29:44.640Z,65.30
2018-06-19T06:33:48.314Z,66.30
2018-06-19T06:37:52.048Z,65.60
2018-06-19T06:41:55.691Z,66.70
2018-06-19T06:46:00.902Z,66.20
2018-06-19T06:50:04.711Z,66.70
2018-06-19T06:54:08.396Z,66.10
2018-06-19T06:58:12.057Z,66.00
2018-06-19T07:02:15.749Z,66.30
2018-06-19T07:06:19.444Z,66.40
2018-06-19T07:10:23.127Z,66.60
2018-06-19T07:14:26.804Z,66.50
2018-06-19T07:18:30.464Z,66.80
2018-06-19T07:22:34.187Z,66.80
2018-06-19T07:26:37.797Z,66.40
2018-06-19T07:30:41.488Z,66.40
2018-06-19T07:34:45.144Z,65.40
2018-06-19T07:38:49.008Z,65.80
2018-06-19T07:42:52.781Z,66.60
2018-06-19T07:46:56.517Z,65.60
2018-06-19T07:51:00.211Z,65.80
2018-06-19T07:55:03.943Z,66.00
2018-06-19T07:59:07.589Z,66.10
2018-06-19T08:03:11.265Z,65.80
2018-06-19T08:07:14.888Z,66.00
2018-06-19T08:11:19.132Z,65.70
2018-06-19T08:15:23.307Z,66.10
2018-06-19T08:19:26.975Z,65.80
2018-06-19T08:23:30.638Z,65.80
2018-06-19T08:27:34.409Z,65.40
2018-06-19T08:31:38.076Z,65.60
2018-06-19T08:35:41.725Z,65.60
2018-06-19T08:39:45.380Z,65.50
2018-06-19T08:43:49.084Z,65.50
2018-06-19T08:47:52.764Z,66.10
2018-06-19T08:51:56.427Z,65.40
2018-06-19T08:56:00.107Z,65.50
2018-06-19T09:00:03.841Z,64.70
2018-06-19T09:04:07.562Z,64.30
2018-06-19T09:08:11.263Z,64.10
2018-06-19T09:12:14.968Z,64.00
2018-06-19T09:16:18.709Z,63.80
2018-06-19T09:20:22.393Z,63.70
2018-06-19T09:24:26.113Z,63.90
2018-06-19T09:28:29.738Z,64.70
2018-06-19T09:32:33.404Z,65.00
2018-06-19T09:36:37.058Z,66.10
2018-06-19T09:40:40.835Z,66.00
2018-06-19T09:44:44.528Z,66.00
2018-06-19T09:48:48.169Z,65.80
2018-06-19T09:52:51.988Z,66.20
2018-06-19T09:56:55.730Z,67.80
2018-06-19T10:01:01.587Z,67.70
2018-06-19T10:05:05.255Z,67.10
2018-06-19T10:09:09.852Z,67.90
2018-06-19T10:13:13.555Z,67.10
2018-06-19T10:17:17.400Z,66.80
2018-06-19T10:21:21.108Z,67.20
2018-06-19T10:25:24.899Z,68.20
2018-06-19T10:29:28.544Z,68.20
2018-06-19T10:33:32.173Z,68.20
2018-06-19T10:37:35.851Z,67.60
2018-06-19T10:41:42.416Z,69.20
2018-06-19T10:45:46.199Z,69.00
2018-06-19T10:49:49.948Z,69.70
2018-06-19T10:53:53.592Z,68.40
2018-06-19T10:57:57.266Z,67.80
2018-06-19T11:02:00.991Z,69.60
2018-06-19T11:06:04.710Z,69.40
2018-06-19T11:10:08.387Z,69.30
2018-06-19T11:14:12.077Z,69.50
2018-06-19T11:18:15.764Z,69.30
2018-06-19T11:22:19.547Z,68.90
2018-06-19T11:26:23.211Z,69.70
2018-06-19T11:30:26.892Z,69.10
2018-06-19T11:34:30.520Z,68.70
2018-06-19T11:38:34.253Z,69.40
2018-06-19T11:42:37.887Z,67.90
2018-06-19T11:46:41.687Z,67.30
2018-06-19T11:50:45.373Z,67.00
2018-06-19T11:54:49.005Z,66.50
2018-06-19T11:58:53.200Z,66.30
2018-06-19T12:02:57.139Z,65.40
2018-06-19T12:07:00.897Z,66.10
2018-06-19T12:11:04.622Z,66.00
2018-06-19T12:15:08.240Z,65.80
2018-06-19T12:19:11.924Z,65.70
2018-06-19T12:23:15.742Z,65.70
2018-06-19T12:27:19.396Z,65.90
2018-06-19T12:31:23.055Z,65.70
2018-06-19T12:35:26.697Z,65.80
2018-06-19T12:39:30.464Z,65.50
2018-06-19T12:43:34.134Z,66.30
2018-06-19T12:47:37.913Z,66.00
2018-06-19T12:52:00.728Z,65.60
2018-06-19T12:56:15.076Z,65.00
2018-06-19T13:00:18.760Z,64.90
2018-06-19T13:04:33.564Z,64.80
2018-06-19T13:08:37.224Z,64.60
2018-06-19T13:13:20.935Z,64.60
2018-06-19T13:17:35.697Z,64.70
2018-06-19T13:21:39.366Z,64.80
2018-06-19T13:25:43.024Z,64.80
2018-06-19T13:30:05.680Z,65.10
2018-06-19T13:34:09.349Z,65.10
2018-06-19T13:38:13.024Z,65.60
2018-06-19T13:42:31.708Z,65.60
2018-06-19T13:46:35.385Z,65.40
2018-06-19T13:50:39.027Z,65.40
2018-06-19T13:54:49.027Z,65.30
2018-06-19T13:58:53.559Z,64.60
2018-06-19T14:02:57.457Z,64.50
2018-06-19T14:07:01.185Z,64.50
2018-06-19T14:11:16.100Z,64.60
2018-06-19T14:15:21.806Z,64.40
2018-06-19T14:19:25.438Z,64.10
2018-06-19T14:23:29.140Z,64.60
2018-06-19T14:27:32.822Z,63.30
2018-06-19T14:31:36.481Z,62.40
2018-06-19T14:35:40.103Z,63.10
2018-06-19T14:39:43.783Z,63.40
2018-06-19T14:43:47.435Z,63.60
2018-06-19T14:47:51.152Z,63.80
2018-06-19T14:51:54.852Z,63.70
2018-06-19T14:55:58.478Z,64.60
2018-06-19T15:00:02.184Z,64.00
2018-06-19T15:04:05.896Z,63.90
2018-06-19T15:08:09.565Z,64.00
2018-06-19T15:12:13.624Z,64.10
2018-06-19T15:16:17.288Z,64.00
2018-06-19T15:20:20.898Z,63.80
2018-06-19T15:24:24.595Z,63.80
2018-06-19T15:28:29.156Z,64.00
2018-06-19T15:32:32.853Z,63.90
2018-06-19T15:36:36.513Z,63.80
2018-06-19T15:40:40.137Z,63.70
2018-06-19T15:44:43.789Z,64.00
2018-06-19T15:48:47.473Z,63.80
2018-06-19T15:52:51.152Z,63.80
2018-06-19T15:56:54.809Z,63.70
2018-06-19T16:00:58.540Z,63.70
2018-06-19T16:05:02.220Z,63.80
2018-06-19T16:09:07.812Z,63.70
2018-06-19T16:13:11.519Z,63.20
2018-06-19T16:17:15.286Z,63.30
2018-06-19T16:21:18.952Z,63.70
2018-06-19T16:25:22.610Z,63.80
2018-06-19T16:29:26.271Z,63.80
2018-06-19T16:33:29.940Z,63.90
2018-06-19T16:37:33.672Z,64.00
2018-06-19T16:41:37.320Z,63.90
2018-06-19T16:45:41.000Z,64.10
2018-06-19T16:49:44.688Z,64.00
2018-06-19T16:53:48.445Z,64.90
2018-06-19T16:57:52.089Z,65.00
2018-06-19T17:01:55.908Z,64.30
2018-06-19T17:05:59.586Z,64.50
2018-06-19T17:10:03.289Z,64.60
2018-06-19T17:14:06.996Z,64.80
2018-06-19T17:18:10.671Z,65.00
2018-06-19T17:22:14.558Z,65.30
2018-06-19T17:26:18.257Z,65.30
2018-06-19T17:30:21.917Z,65.10
2018-06-19T17:34:25.596Z,65.10
2018-06-19T17:38:29.283Z,65.20
2018-06-19T17:42:32.924Z,65.60
2018-06-19T17:46:36.647Z,65.90
2018-06-19T17:50:40.327Z,66.90
2018-06-19T17:54:44.010Z,65.20
2018-06-19T17:58:47.672Z,65.50
2018-06-19T18:02:51.300Z,65.30
2018-06-19T18:06:54.993Z,65.10
2018-06-19T18:10:59.673Z,65.40
2018-06-19T18:15:03.442Z,65.20
2018-06-19T18:19:07.287Z,65.40
2018-06-19T18:23:11.097Z,65.00
2018-06-19T18:27:14.921Z,65.20
2018-06-19T18:31:18.822Z,65.00
2018-06-19T18:35:22.619Z,65.10
2018-06-19T18:39:26.516Z,65.20
2018-06-19T18:43:30.696Z,65.20
2018-06-19T18:47:34.574Z,65.30
2018-06-19T18:51:38.352Z,65.10
2018-06-19T18:55:41.992Z,65.20
2018-06-19T18:59:45.644Z,65.20
2018-06-19T19:03:49.500Z,65.30
2018-06-19T19:07:53.270Z,65.40
2018-06-19T19:11:57.190Z,65.30
2018-06-19T19:16:06.298Z,65.60
2018-06-19T19:20:10.240Z,65.60
2018-06-19T19:24:14.071Z,65.50
2018-06-19T19:28:23.048Z,65.40
2018-06-19T19:32:26.985Z,65.40
2018-06-19T19:36:36.023Z,65.50
2018-06-19T19:40:39.884Z,65.70
2018-06-19T19:44:43.761Z,66.10
2018-06-19T19:48:52.646Z,65.60
2018-06-19T19:52:56.299Z,65.60
2018-06-19T19:57:05.304Z,65.60
2018-06-19T20:01:08.991Z,65.60
2018-06-19T20:09:16.076Z,65.80
2018-06-19T20:13:19.888Z,65.70
2018-06-19T20:17:23.661Z,65.80
2018-06-19T20:21:27.480Z,65.70
2018-06-19T20:25:31.160Z,66.00
2018-06-19T20:29:34.785Z,65.80
2018-06-19T20:33:38.492Z,65.90
2018-06-19T20:37:42.150Z,65.90
2018-06-19T20:41:45.814Z,65.80
2018-06-19T20:45:49.468Z,65.70
2018-06-19T20:49:53.092Z,65.80
2018-06-19T20:53:56.791Z,65.80
2018-06-19T20:58:00.466Z,65.90
2018-06-19T21:02:04.203Z,65.90
2018-06-19T21:06:08.036Z,65.90
2018-06-19T21:10:11.676Z,66.00
2018-06-19T21:14:15.372Z,66.00
2018-06-19T21:18:19.042Z,66.10
2018-06-19T21:22:22.760Z,65.90
2018-06-19T21:26:26.643Z,65.90
2018-06-19T21:30:30.259Z,66.00
2018-06-19T21:34:33.911Z,65.90
2018-06-19T21:38:37.576Z,66.00
2018-06-19T21:42:41.228Z,66.00
2018-06-19T21:46:44.886Z,66.00
2018-06-19T21:50:48.491Z,66.10
2018-06-19T21:54:52.164Z,66.10
2018-06-19T21:58:55.835Z,66.00
2018-06-19T22:02:59.487Z,66.10
2018-06-19T22:07:03.157Z,66.10
2018-06-19T22:11:07.200Z,66.20
2018-06-19T22:15:10.859Z,66.20
2018-06-19T22:19:14.512Z,66.10
2018-06-19T22:23:18.172Z,66.20
2018-06-19T22:27:21.916Z,66.20
2018-06-19T22:31:25.592Z,66.20
2018-06-19T22:35:29.247Z,66.20
2018-06-19T22:39:33.056Z,66.20
2018-06-19T22:43:36.726Z,66.20
2018-06-19T22:47:40.386Z,66.20
2018-06-19T22:51:44.032Z,66.30
2018-06-19T22:55:47.649Z,66.20
2018-06-19T22:59:51.303Z,66.20
2018-06-19T23:03:54.956Z,66.20
2018-06-19T23:07:58.693Z,66.20
2018-06-19T23:12:02.380Z,66.30
2018-06-19T23:16:06.002Z,66.30
2018-06-19T23:20:09.667Z,66.30
2018-06-19T23:24:13.323Z,66.20
2018-06-19T23:28:17.019Z,66.30
2018-06-19T23:32:20.674Z,66.40
2018-06-19T23:36:24.386Z,66.30
2018-06-19T23:40:28.039Z,66.40
2018-06-19T23:44:31.806Z,66.40
2018-06-19T23:48:35.498Z,66.50
2018-06-19T23:52:39.181Z,66.50
2018-06-19T23:56:42.857Z,66.60
